Cap Charles — SXVV — position and weather

sailwx.info

Track history (hours):
 
Tides and Currents Weather Stations Pressure Air Temp Water Temp Dewpoint Dewpoint Depression Visibility Wind Speed Wind Dir Waves Ship Positions

Cap Charles

Last reported at 2017-Sep-14 06:14 UTC. Time now 2017-Sep-22 22:29 UTC.
Position N 24°50' W 079°40'.
Warning: this ship's position is 8 days out of date.

Length 275 m; draft 12.2 m.

Type: Tanker. MMSI: 240561000.

Date/timePositionNaut miles runAvg speedWind from/ knotsBaromVisibWave heightAir tempDewpointWater temp
2017-Sep-14 06:14N 24°50' W 079°40'  
2017-Sep-10 17:06N 29°21' W 094°47'511.0
2017-Sep-10 16:37N 29°25' W 094°50'110.3
2017-Sep-10 16:30N 29°26' W 094°50'5 9.7
2017-Sep-10 16:00N 29°31' W 094°53'510.1
2017-Sep-10 15:30N 29°35' W 094°56'5 9.7
2017-Sep-10 15:00N 29°39' W 094°58'7 6.5
2017-Sep-10 14:00N 29°44' W 095°03'2 4.8
2017-Sep-10 13:30N 29°46' W 095°05'2 4.6
2017-Sep-10 13:00N 29°44' W 095°07'0 0.5
2017-Sep-10 12:30N 29°44' W 095°07'  
2017-Sep-08 00:18N 29°44' W 095°07'0 0.1
2017-Sep-08 00:00N 29°44' W 095°07'1 2.0
2017-Sep-07 23:30N 29°45' W 095°06'2 4.3
2017-Sep-07 23:00N 29°45' W 095°04'4 7.0
2017-Sep-07 22:30N 29°42' W 095°01'5 9.8
2017-Sep-07 22:00N 29°38' W 094°58'611.7
2017-Sep-07 21:30N 29°33' W 094°55'612.3
2017-Sep-07 21:00N 29°28' W 094°51'612.0
2017-Sep-07 20:30N 29°22' W 094°48'  
Track history (hours):
 
Tides and Currents Weather Stations Pressure Air Temp Water Temp Dewpoint Dewpoint Depression Visibility Wind Speed Wind Dir Waves Ship Positions

Cap Charles

Last reported at 2017-Sep-14 06:14 UTC. Time now 2017-Sep-22 22:29 UTC.
Position N 24°50' W 079°40'.
Warning: this ship's position is 8 days out of date.

Length 275 m; draft 12.2 m.

Type: Tanker. MMSI: 240561000.

Date/timePositionNaut miles runAvg speedWind from/ knotsBaromVisibWave heightAir tempDewpointWater temp
2017-Sep-14 06:14N 24°50' W 079°40'  
2017-Sep-10 17:06N 29°21' W 094°47'511.0
2017-Sep-10 16:37N 29°25' W 094°50'110.3
2017-Sep-10 16:30N 29°26' W 094°50'5 9.7
2017-Sep-10 16:00N 29°31' W 094°53'510.1
2017-Sep-10 15:30N 29°35' W 094°56'5 9.7
2017-Sep-10 15:00N 29°39' W 094°58'7 6.5
2017-Sep-10 14:00N 29°44' W 095°03'2 4.8
2017-Sep-10 13:30N 29°46' W 095°05'2 4.6
2017-Sep-10 13:00N 29°44' W 095°07'0 0.5
2017-Sep-10 12:30N 29°44' W 095°07'  
2017-Sep-08 00:18N 29°44' W 095°07'0 0.1
2017-Sep-08 00:00N 29°44' W 095°07'1 2.0
2017-Sep-07 23:30N 29°45' W 095°06'2 4.3
2017-Sep-07 23:00N 29°45' W 095°04'4 7.0
2017-Sep-07 22:30N 29°42' W 095°01'5 9.8
2017-Sep-07 22:00N 29°38' W 094°58'611.7
2017-Sep-07 21:30N 29°33' W 094°55'612.3
2017-Sep-07 21:00N 29°28' W 094°51'612.0
2017-Sep-07 20:30N 29°22' W 094°48'  

Dump ship's entire track history